sensor_id;sensor_type;location;lat;lon;timestamp;pressure;altitude;pressure_sealevel;temperature;humidity
62124;BME280;48110;47.532;19.078;2023-03-24T00:01:09;100152.94;;;10.07;100.00
62124;BME280;48110;47.532;19.078;2023-03-24T00:04:16;100150.28;;;9.98;100.00
62124;BME280;48110;47.532;19.078;2023-03-24T00:07:24;100155.78;;;9.89;100.00
62124;BME280;48110;47.532;19.078;2023-03-24T00:10:31;100151.84;;;9.77;100.00
62124;BME280;48110;47.532;19.078;2023-03-24T00:13:40;100154.16;;;9.72;100.00
62124;BME280;48110;47.532;19.078;2023-03-24T00:16:46;100145.41;;;9.55;100.00
62124;BME280;48110;47.532;19.078;2023-03-24T00:19:52;100139.47;;;9.53;100.00
62124;BME280;48110;47.532;19.078;2023-03-24T00:23:00;100134.66;;;9.56;100.00
62124;BME280;48110;47.532;19.078;2023-03-24T00:26:09;100144.41;;;9.72;100.00
62124;BME280;48110;47.532;19.078;2023-03-24T00:29:20;100128.84;;;9.61;100.00
62124;BME280;48110;47.532;19.078;2023-03-24T00:32:24;100131.66;;;9.59;100.00
62124;BME280;48110;47.532;19.078;2023-03-24T00:35:27;100124.06;;;9.48;100.00
62124;BME280;48110;47.532;19.078;2023-03-24T00:38:32;100123.06;;;9.41;100.00
62124;BME280;48110;47.532;19.078;2023-03-24T00:41:40;100118.44;;;9.35;100.00
62124;BME280;48110;47.532;19.078;2023-03-24T00:44:49;100126.38;;;9.35;100.00
62124;BME280;48110;47.532;19.078;2023-03-24T00:47:58;100118.09;;;9.30;100.00
62124;BME280;48110;47.532;19.078;2023-03-24T00:51:04;100111.66;;;9.25;100.00
62124;BME280;48110;47.532;19.078;2023-03-24T00:54:10;100107.53;;;9.22;100.00
62124;BME280;48110;47.532;19.078;2023-03-24T00:57:18;100107.19;;;9.17;100.00
62124;BME280;48110;47.532;19.078;2023-03-24T01:00:29;100096.28;;;9.12;100.00
62124;BME280;48110;47.532;19.078;2023-03-24T01:03:35;100097.44;;;9.09;100.00
62124;BME280;48110;47.532;19.078;2023-03-24T01:06:48;100100.25;;;9.08;100.00
62124;BME280;48110;47.532;19.078;2023-03-24T01:09:59;100091.81;;;9.04;100.00
62124;BME280;48110;47.532;19.078;2023-03-24T01:13:09;100093.63;;;9.04;100.00
62124;BME280;48110;47.532;19.078;2023-03-24T01:16:17;100097.94;;;9.05;100.00
62124;BME280;48110;47.532;19.078;2023-03-24T01:19:27;100088.16;;;9.05;100.00
62124;BME280;48110;47.532;19.078;2023-03-24T01:22:35;100073.44;;;9.11;100.00
62124;BME280;48110;47.532;19.078;2023-03-24T01:25:43;100066.75;;;9.64;100.00
62124;BME280;48110;47.532;19.078;2023-03-24T01:28:50;100065.09;;;9.71;100.00
62124;BME280;48110;47.532;19.078;2023-03-24T01:31:58;100065.62;;;9.58;100.00
62124;BME280;48110;47.532;19.078;2023-03-24T01:35:09;100066.97;;;9.46;100.00
62124;BME280;48110;47.532;19.078;2023-03-24T01:38:17;100071.78;;;9.26;100.00
62124;BME280;48110;47.532;19.078;2023-03-24T01:41:22;100064.84;;;9.17;100.00
62124;BME280;48110;47.532;19.078;2023-03-24T01:47:39;100053.91;;;9.20;100.00
62124;BME280;48110;47.532;19.078;2023-03-24T01:50:52;100055.91;;;9.18;100.00
62124;BME280;48110;47.532;19.078;2023-03-24T01:54:00;100058.09;;;9.14;100.00
62124;BME280;48110;47.532;19.078;2023-03-24T01:57:11;100052.25;;;9.35;100.00
62124;BME280;48110;47.532;19.078;2023-03-24T02:00:21;100055.06;;;9.26;100.00
62124;BME280;48110;47.532;19.078;2023-03-24T02:03:34;100052.94;;;9.13;100.00
62124;BME280;48110;47.532;19.078;2023-03-24T02:06:44;100057.06;;;9.07;100.00
62124;BME280;48110;47.532;19.078;2023-03-24T02:09:51;100049.47;;;9.04;100.00
62124;BME280;48110;47.532;19.078;2023-03-24T02:12:58;100054.09;;;9.02;100.00
62124;BME280;48110;47.532;19.078;2023-03-24T02:35:57;100064.81;;;8.77;100.00
62124;BME280;48110;47.532;19.078;2023-03-24T02:42:43;100055.06;;;8.69;100.00
62124;BME280;48110;47.532;19.078;2023-03-24T02:46:01;100055.91;;;8.69;100.00
62124;BME280;48110;47.532;19.078;2023-03-24T02:55:51;100050.44;;;8.63;100.00
62124;BME280;48110;47.532;19.078;2023-03-24T02:59:03;100039.38;;;8.59;100.00
62124;BME280;48110;47.532;19.078;2023-03-24T03:02:13;100028.94;;;8.58;100.00
62124;BME280;48110;47.532;19.078;2023-03-24T03:05:24;100026.16;;;8.59;100.00
62124;BME280;48110;47.532;19.078;2023-03-24T03:08:32;100033.59;;;8.56;100.00
62124;BME280;48110;47.532;19.078;2023-03-24T03:11:43;100028.94;;;8.50;100.00
62124;BME280;48110;47.532;19.078;2023-03-24T03:14:53;100029.59;;;8.44;100.00
62124;BME280;48110;47.532;19.078;2023-03-24T03:21:13;100019.34;;;8.41;100.00
62124;BME280;48110;47.532;19.078;2023-03-24T03:24:21;100026.44;;;8.40;100.00
62124;BME280;48110;47.532;19.078;2023-03-24T03:27:34;100030.56;;;8.35;100.00
62124;BME280;48110;47.532;19.078;2023-03-24T03:30:55;100025.59;;;8.32;100.00
62124;BME280;48110;47.532;19.078;2023-03-24T03:34:14;100029.34;;;8.29;100.00
62124;BME280;48110;47.532;19.078;2023-03-24T03:40:34;100028.72;;;8.27;100.00
62124;BME280;48110;47.532;19.078;2023-03-24T03:43:46;100032.97;;;8.28;100.00
62124;BME280;48110;47.532;19.078;2023-03-24T03:46:58;100024.25;;;8.27;100.00
62124;BME280;48110;47.532;19.078;2023-03-24T03:50:09;100022.75;;;8.25;100.00
62124;BME280;48110;47.532;19.078;2023-03-24T03:53:19;100012.66;;;8.20;100.00
62124;BME280;48110;47.532;19.078;2023-03-24T03:56:29;100009.34;;;8.18;100.00
62124;BME280;48110;47.532;19.078;2023-03-24T03:59:40;100011.97;;;8.10;100.00
62124;BME280;48110;47.532;19.078;2023-03-24T04:03:00;100011.31;;;8.08;100.00
62124;BME280;48110;47.532;19.078;2023-03-24T04:19:11;100001.31;;;7.86;100.00
62124;BME280;48110;47.532;19.078;2023-03-24T04:22:36;100008.88;;;7.81;100.00
62124;BME280;48110;47.532;19.078;2023-03-24T04:25:50;100009.03;;;7.79;100.00
62124;BME280;48110;47.532;19.078;2023-03-24T04:29:14;100013.53;;;7.79;100.00
62124;BME280;48110;47.532;19.078;2023-03-24T04:32:27;100008.72;;;7.74;100.00
62124;BME280;48110;47.532;19.078;2023-03-24T04:35:39;100008.38;;;7.69;100.00
62124;BME280;48110;47.532;19.078;2023-03-24T04:38:50;100007.69;;;7.67;100.00
62124;BME280;48110;47.532;19.078;2023-03-24T04:42:06;100009.00;;;7.63;100.00
62124;BME280;48110;47.532;19.078;2023-03-24T04:45:12;100019.03;;;7.60;100.00
62124;BME280;48110;47.532;19.078;2023-03-24T04:48:22;100014.88;;;7.57;100.00
62124;BME280;48110;47.532;19.078;2023-03-24T04:51:33;100021.69;;;7.60;100.00
62124;BME280;48110;47.532;19.078;2023-03-24T04:54:39;100030.25;;;7.62;100.00
62124;BME280;48110;47.532;19.078;2023-03-24T04:57:48;100025.47;;;7.65;100.00
62124;BME280;48110;47.532;19.078;2023-03-24T05:00:56;100025.84;;;7.70;100.00
62124;BME280;48110;47.532;19.078;2023-03-24T05:04:06;100012.16;;;7.75;100.00
62124;BME280;48110;47.532;19.078;2023-03-24T05:07:12;100018.00;;;7.95;100.00
62124;BME280;48110;47.532;19.078;2023-03-24T05:10:23;100017.88;;;7.96;100.00
62124;BME280;48110;47.532;19.078;2023-03-24T05:13:30;100019.19;;;8.00;100.00
62124;BME280;48110;47.532;19.078;2023-03-24T05:16:39;100019.69;;;8.04;100.00
62124;BME280;48110;47.532;19.078;2023-03-24T05:19:47;100029.47;;;8.11;100.00
62124;BME280;48110;47.532;19.078;2023-03-24T05:22:57;100030.66;;;8.17;100.00
62124;BME280;48110;47.532;19.078;2023-03-24T05:26:04;100021.41;;;8.21;100.00
62124;BME280;48110;47.532;19.078;2023-03-24T05:29:14;100026.25;;;8.34;100.00
62124;BME280;48110;47.532;19.078;2023-03-24T05:32:22;100029.78;;;8.42;100.00
62124;BME280;48110;47.532;19.078;2023-03-24T05:35:30;100032.06;;;8.53;100.00
62124;BME280;48110;47.532;19.078;2023-03-24T05:38:39;100036.91;;;8.66;100.00
62124;BME280;48110;47.532;19.078;2023-03-24T05:41:45;100035.41;;;8.80;100.00
62124;BME280;48110;47.532;19.078;2023-03-24T05:44:50;100034.09;;;8.92;100.00
62124;BME280;48110;47.532;19.078;2023-03-24T05:47:57;100047.16;;;9.09;100.00
62124;BME280;48110;47.532;19.078;2023-03-24T05:51:06;100048.13;;;9.33;100.00
62124;BME280;48110;47.532;19.078;2023-03-24T05:54:12;100048.72;;;9.59;100.00
62124;BME280;48110;47.532;19.078;2023-03-24T05:57:19;100043.97;;;9.93;100.00
62124;BME280;48110;47.532;19.078;2023-03-24T06:00:27;100050.47;;;10.30;100.00
62124;BME280;48110;47.532;19.078;2023-03-24T06:03:33;100043.44;;;10.68;100.00
62124;BME280;48110;47.532;19.078;2023-03-24T06:06:43;100043.38;;;10.99;100.00
62124;BME280;48110;47.532;19.078;2023-03-24T06:09:52;100048.41;;;11.31;96.32
62124;BME280;48110;47.532;19.078;2023-03-24T06:13:01;100042.56;;;11.36;93.48
62124;BME280;48110;47.532;19.078;2023-03-24T06:16:06;100051.00;;;11.54;90.22
62124;BME280;48110;47.532;19.078;2023-03-24T06:19:13;100043.59;;;11.64;89.96
62124;BME280;48110;47.532;19.078;2023-03-24T06:22:19;100051.19;;;11.67;87.43
62124;BME280;48110;47.532;19.078;2023-03-24T06:25:24;100057.03;;;11.62;88.72
62124;BME280;48110;47.532;19.078;2023-03-24T06:28:32;100053.78;;;11.75;87.41
62124;BME280;48110;47.532;19.078;2023-03-24T06:31:38;100059.00;;;11.83;85.91
62124;BME280;48110;47.532;19.078;2023-03-24T06:34:43;100058.63;;;11.86;80.11
62124;BME280;48110;47.532;19.078;2023-03-24T06:37:50;100054.25;;;11.93;80.81
62124;BME280;48110;47.532;19.078;2023-03-24T06:40:58;100050.69;;;12.37;78.63
62124;BME280;48110;47.532;19.078;2023-03-24T06:44:02;100057.56;;;12.88;72.80
62124;BME280;48110;47.532;19.078;2023-03-24T06:47:10;100057.19;;;13.34;69.99
62124;BME280;48110;47.532;19.078;2023-03-24T06:50:14;100053.19;;;13.79;67.46
62124;BME280;48110;47.532;19.078;2023-03-24T06:53:18;100049.81;;;13.64;65.93
62124;BME280;48110;47.532;19.078;2023-03-24T06:56:23;100038.84;;;13.45;66.35
62124;BME280;48110;47.532;19.078;2023-03-24T06:59:29;100042.41;;;14.41;64.51
62124;BME280;48110;47.532;19.078;2023-03-24T07:02:32;100047.28;;;15.18;60.77
62124;BME280;48110;47.532;19.078;2023-03-24T07:05:40;100051.31;;;16.44;55.29
62124;BME280;48110;47.532;19.078;2023-03-24T07:08:45;100033.09;;;15.63;54.95
62124;BME280;48110;47.532;19.078;2023-03-24T07:11:50;100030.34;;;14.52;59.30
62124;BME280;48110;47.532;19.078;2023-03-24T07:14:54;100037.31;;;15.91;56.52
62124;BME280;48110;47.532;19.078;2023-03-24T07:17:59;100033.59;;;17.55;51.13
62124;BME280;48110;47.532;19.078;2023-03-24T07:21:03;100028.13;;;18.23;48.70
62124;BME280;48110;47.532;19.078;2023-03-24T07:24:08;100033.81;;;17.54;49.26
62124;BME280;48110;47.532;19.078;2023-03-24T07:27:12;100035.56;;;19.10;45.77
62124;BME280;48110;47.532;19.078;2023-03-24T07:30:17;100024.84;;;18.51;46.13
62124;BME280;48110;47.532;19.078;2023-03-24T07:33:30;100028.56;;;20.03;43.48
62124;BME280;48110;47.532;19.078;2023-03-24T07:36:34;100022.94;;;21.06;40.66
62124;BME280;48110;47.532;19.078;2023-03-24T07:39:39;100013.13;;;19.86;41.39
62124;BME280;48110;47.532;19.078;2023-03-24T07:42:44;100009.75;;;20.19;42.55
62124;BME280;48110;47.532;19.078;2023-03-24T07:45:51;100007.59;;;21.40;39.08
62124;BME280;48110;47.532;19.078;2023-03-24T07:48:56;100010.81;;;21.37;38.88
62124;BME280;48110;47.532;19.078;2023-03-24T07:52:10;100020.50;;;21.04;38.54
62124;BME280;48110;47.532;19.078;2023-03-24T07:55:16;100011.00;;;20.28;41.25
62124;BME280;48110;47.532;19.078;2023-03-24T07:58:21;100015.25;;;22.25;37.13
62124;BME280;48110;47.532;19.078;2023-03-24T08:01:27;100016.75;;;21.05;38.05
62124;BME280;48110;47.532;19.078;2023-03-24T08:04:33;100012.28;;;21.28;38.25
62124;BME280;48110;47.532;19.078;2023-03-24T08:07:41;100008.25;;;21.85;37.06
62124;BME280;48110;47.532;19.078;2023-03-24T08:10:46;100001.91;;;19.89;39.60
62124;BME280;48110;47.532;19.078;2023-03-24T08:13:53;99986.75;;;22.39;36.71
62124;BME280;48110;47.532;19.078;2023-03-24T08:16:57;99991.78;;;20.65;38.75
62124;BME280;48110;47.532;19.078;2023-03-24T08:20:01;99986.53;;;19.90;39.57
62124;BME280;48110;47.532;19.078;2023-03-24T08:23:18;99978.44;;;20.02;40.80
62124;BME280;48110;47.532;19.078;2023-03-24T08:26:22;99982.09;;;20.97;37.90
62124;BME280;48110;47.532;19.078;2023-03-24T08:29:29;99969.34;;;21.26;37.65
62124;BME280;48110;47.532;19.078;2023-03-24T08:32:34;99966.47;;;21.49;37.37
62124;BME280;48110;47.532;19.078;2023-03-24T08:35:39;99960.50;;;19.67;40.08
62124;BME280;48110;47.532;19.078;2023-03-24T08:38:44;99969.00;;;20.72;38.67
62124;BME280;48110;47.532;19.078;2023-03-24T08:41:50;99963.81;;;21.16;38.17
62124;BME280;48110;47.532;19.078;2023-03-24T08:44:56;99961.66;;;22.43;36.18
62124;BME280;48110;47.532;19.078;2023-03-24T08:48:01;99958.03;;;22.86;35.09
62124;BME280;48110;47.532;19.078;2023-03-24T08:51:09;99947.19;;;20.57;38.42
62124;BME280;48110;47.532;19.078;2023-03-24T08:54:13;99947.19;;;20.29;39.20
62124;BME280;48110;47.532;19.078;2023-03-24T08:57:17;99954.66;;;19.70;41.11
62124;BME280;48110;47.532;19.078;2023-03-24T09:00:23;99951.22;;;21.05;38.20
62124;BME280;48110;47.532;19.078;2023-03-24T09:03:27;99948.13;;;19.94;40.47
62124;BME280;48110;47.532;19.078;2023-03-24T09:06:31;99947.97;;;19.73;41.14
62124;BME280;48110;47.532;19.078;2023-03-24T09:09:34;99954.09;;;19.10;42.09
62124;BME280;48110;47.532;19.078;2023-03-24T09:12:40;99938.50;;;18.65;43.34
62124;BME280;48110;47.532;19.078;2023-03-24T09:15:50;99941.59;;;18.21;43.88
62124;BME280;48110;47.532;19.078;2023-03-24T09:18:55;99940.78;;;17.91;45.67
62124;BME280;48110;47.532;19.078;2023-03-24T09:22:00;99933.31;;;17.93;46.27
62124;BME280;48110;47.532;19.078;2023-03-24T09:25:05;99929.12;;;17.97;45.61
62124;BME280;48110;47.532;19.078;2023-03-24T09:28:09;99928.81;;;17.75;46.18
62124;BME280;48110;47.532;19.078;2023-03-24T09:31:14;99931.28;;;17.76;46.46
62124;BME280;48110;47.532;19.078;2023-03-24T09:34:18;99927.53;;;17.77;46.38
62124;BME280;48110;47.532;19.078;2023-03-24T09:37:23;99922.66;;;17.50;46.78
62124;BME280;48110;47.532;19.078;2023-03-24T09:40:27;99929.06;;;17.49;47.07
62124;BME280;48110;47.532;19.078;2023-03-24T09:43:36;99925.28;;;17.56;47.18
62124;BME280;48110;47.532;19.078;2023-03-24T09:46:45;99913.94;;;17.54;47.49
62124;BME280;48110;47.532;19.078;2023-03-24T09:49:50;99903.84;;;17.56;48.62
62124;BME280;48110;47.532;19.078;2023-03-24T09:52:56;99904.72;;;17.68;47.88
62124;BME280;48110;47.532;19.078;2023-03-24T09:56:03;99890.84;;;17.53;48.29
62124;BME280;48110;47.532;19.078;2023-03-24T09:59:21;99883.91;;;17.82;48.33
62124;BME280;48110;47.532;19.078;2023-03-24T10:02:33;99882.25;;;17.99;47.29
62124;BME280;48110;47.532;19.078;2023-03-24T10:05:41;99878.09;;;18.15;47.35
62124;BME280;48110;47.532;19.078;2023-03-24T10:08:49;99875.22;;;17.98;48.23
62124;BME280;48110;47.532;19.078;2023-03-24T10:15:22;99867.94;;;18.70;46.36
62124;BME280;48110;47.532;19.078;2023-03-24T10:19:04;99866.38;;;19.32;44.96
62124;BME280;48110;47.532;19.078;2023-03-24T10:29:33;99858.34;;;20.46;42.95
62124;BME280;48110;47.532;19.078;2023-03-24T10:32:39;99849.91;;;20.59;41.75
62124;BME280;48110;47.532;19.078;2023-03-24T10:39:04;99846.16;;;20.76;41.83
62124;BME280;48110;47.532;19.078;2023-03-24T10:42:15;99834.88;;;20.63;41.35
62124;BME280;48110;47.532;19.078;2023-03-24T10:45:26;99846.13;;;20.26;41.92
62124;BME280;48110;47.532;19.078;2023-03-24T10:51:47;99843.09;;;20.06;42.05
62124;BME280;48110;47.532;19.078;2023-03-24T10:54:53;99831.72;;;20.32;41.40
62124;BME280;48110;47.532;19.078;2023-03-24T10:57:58;99838.72;;;20.33;41.16
62124;BME280;48110;47.532;19.078;2023-03-24T11:01:19;99832.00;;;20.19;41.33
62124;BME280;48110;47.532;19.078;2023-03-24T11:04:26;99830.84;;;22.13;38.04
62124;BME280;48110;47.532;19.078;2023-03-24T11:07:36;99828.97;;;24.52;34.12
62124;BME280;48110;47.532;19.078;2023-03-24T11:10:44;99818.72;;;25.38;32.26
62124;BME280;48110;47.532;19.078;2023-03-24T11:13:54;99823.16;;;27.56;29.03
62124;BME280;48110;47.532;19.078;2023-03-24T11:17:18;99807.22;;;24.77;32.21
62124;BME280;48110;47.532;19.078;2023-03-24T11:20:33;99805.72;;;28.27;28.02
62124;BME280;48110;47.532;19.078;2023-03-24T11:23:39;99800.94;;;28.38;27.53
62124;BME280;48110;47.532;19.078;2023-03-24T11:29:56;99796.69;;;29.96;25.57
62124;BME280;48110;47.532;19.078;2023-03-24T11:33:02;99786.63;;;30.49;24.80
62124;BME280;48110;47.532;19.078;2023-03-24T11:36:13;99778.09;;;28.34;26.44
62124;BME280;48110;47.532;19.078;2023-03-24T11:39:31;99771.91;;;25.02;30.77
62124;BME280;48110;47.532;19.078;2023-03-24T11:42:40;99774.91;;;27.76;27.85
62124;BME280;48110;47.532;19.078;2023-03-24T11:46:10;99765.94;;;28.86;26.57
62124;BME280;48110;47.532;19.078;2023-03-24T11:49:17;99760.81;;;27.07;28.24
62124;BME280;48110;47.532;19.078;2023-03-24T11:52:23;99739.81;;;25.20;30.66
62124;BME280;48110;47.532;19.078;2023-03-24T11:55:35;99744.75;;;25.95;29.59
62124;BME280;48110;47.532;19.078;2023-03-24T12:01:50;99744.34;;;30.11;24.60
62124;BME280;48110;47.532;19.078;2023-03-24T12:17:46;99704.16;;;30.20;23.69
62124;BME280;48110;47.532;19.078;2023-03-24T12:27:47;99690.66;;;32.06;22.06
62124;BME280;48110;47.532;19.078;2023-03-24T12:34:02;99680.50;;;28.72;23.45
62124;BME280;48110;47.532;19.078;2023-03-24T12:47:21;99664.94;;;28.31;24.98
62124;BME280;48110;47.532;19.078;2023-03-24T12:54:07;99647.44;;;27.86;25.30
62124;BME280;48110;47.532;19.078;2023-03-24T12:57:17;99653.22;;;27.66;25.89
62124;BME280;48110;47.532;19.078;2023-03-24T13:00:35;99641.09;;;27.58;26.04
62124;BME280;48110;47.532;19.078;2023-03-24T13:06:51;99635.09;;;28.76;24.49
62124;BME280;48110;47.532;19.078;2023-03-24T13:10:04;99634.00;;;28.36;24.86
62124;BME280;48110;47.532;19.078;2023-03-24T13:16:14;99619.50;;;25.92;28.12
62124;BME280;48110;47.532;19.078;2023-03-24T13:19:19;99615.84;;;25.44;29.18
62124;BME280;48110;47.532;19.078;2023-03-24T13:22:26;99606.88;;;25.77;28.49
62124;BME280;48110;47.532;19.078;2023-03-24T13:25:36;99608.56;;;27.30;26.53
62124;BME280;48110;47.532;19.078;2023-03-24T13:29:03;99609.09;;;27.13;27.12
62124;BME280;48110;47.532;19.078;2023-03-24T13:32:20;99607.19;;;25.71;28.01
62124;BME280;48110;47.532;19.078;2023-03-24T13:38:56;99604.31;;;25.23;28.63
62124;BME280;48110;47.532;19.078;2023-03-24T13:42:01;99598.41;;;25.55;28.34
62124;BME280;48110;47.532;19.078;2023-03-24T13:45:06;99589.00;;;25.37;28.84
62124;BME280;48110;47.532;19.078;2023-03-24T13:48:17;99595.66;;;26.60;27.49
62124;BME280;48110;47.532;19.078;2023-03-24T13:51:36;99589.97;;;29.28;24.12
62124;BME280;48110;47.532;19.078;2023-03-24T13:54:44;99589.87;;;30.17;23.14
62124;BME280;48110;47.532;19.078;2023-03-24T13:57:55;99595.91;;;31.10;22.12
62124;BME280;48110;47.532;19.078;2023-03-24T14:13:44;99571.47;;;31.77;21.05
62124;BME280;48110;47.532;19.078;2023-03-24T14:23:14;99557.69;;;30.22;22.38
62124;BME280;48110;47.532;19.078;2023-03-24T14:29:37;99558.66;;;26.78;26.74
62124;BME280;48110;47.532;19.078;2023-03-24T14:32:44;99547.50;;;28.36;25.13
62124;BME280;48110;47.532;19.078;2023-03-24T14:35:48;99544.28;;;29.73;23.54
62124;BME280;48110;47.532;19.078;2023-03-24T14:45:36;99542.88;;;23.34;31.48
62124;BME280;48110;47.532;19.078;2023-03-24T14:49:03;99538.50;;;22.73;32.58
62124;BME280;48110;47.532;19.078;2023-03-24T14:52:12;99547.22;;;22.23;33.50
62124;BME280;48110;47.532;19.078;2023-03-24T14:55:20;99541.75;;;22.07;33.98
62124;BME280;48110;47.532;19.078;2023-03-24T14:58:35;99535.66;;;22.37;33.53
62124;BME280;48110;47.532;19.078;2023-03-24T15:01:41;99537.28;;;22.38;33.65
62124;BME280;48110;47.532;19.078;2023-03-24T15:08:16;99540.25;;;22.42;33.84
62124;BME280;48110;47.532;19.078;2023-03-24T15:11:29;99522.66;;;22.24;34.07
62124;BME280;48110;47.532;19.078;2023-03-24T15:14:38;99526.34;;;22.08;34.11
62124;BME280;48110;47.532;19.078;2023-03-24T15:17:44;99519.09;;;22.14;34.20
62124;BME280;48110;47.532;19.078;2023-03-24T15:20:51;99512.53;;;21.99;34.42
62124;BME280;48110;47.532;19.078;2023-03-24T15:23:56;99510.88;;;21.93;34.67
62124;BME280;48110;47.532;19.078;2023-03-24T15:30:12;99504.75;;;21.61;35.11
62124;BME280;48110;47.532;19.078;2023-03-24T15:33:18;99501.09;;;21.40;35.49
62124;BME280;48110;47.532;19.078;2023-03-24T15:36:23;99504.25;;;21.27;35.80
62124;BME280;48110;47.532;19.078;2023-03-24T15:39:31;99503.16;;;21.23;35.89
62124;BME280;48110;47.532;19.078;2023-03-24T15:42:37;99499.06;;;21.20;36.11
62124;BME280;48110;47.532;19.078;2023-03-24T15:45:43;99505.22;;;21.16;36.29
62124;BME280;48110;47.532;19.078;2023-03-24T15:48:56;99501.62;;;21.05;36.52
62124;BME280;48110;47.532;19.078;2023-03-24T15:52:01;99504.28;;;21.00;36.65
62124;BME280;48110;47.532;19.078;2023-03-24T15:55:26;99496.19;;;21.00;36.53
62124;BME280;48110;47.532;19.078;2023-03-24T15:59:05;99492.94;;;20.98;36.65
62124;BME280;48110;47.532;19.078;2023-03-24T16:02:02;99494.53;;;20.94;36.82
62124;BME280;48110;47.532;19.078;2023-03-24T16:05:25;99487.44;;;20.88;36.80
62124;BME280;48110;47.532;19.078;2023-03-24T16:08:33;99495.25;;;20.85;36.98
62124;BME280;48110;47.532;19.078;2023-03-24T16:11:43;99485.28;;;20.85;36.95
62124;BME280;48110;47.532;19.078;2023-03-24T16:14:48;99493.41;;;20.63;37.14
62124;BME280;48110;47.532;19.078;2023-03-24T16:17:55;99497.63;;;20.54;37.27
62124;BME280;48110;47.532;19.078;2023-03-24T16:21:21;99497.81;;;20.43;37.49
62124;BME280;48110;47.532;19.078;2023-03-24T16:24:26;99492.59;;;20.36;37.65
62124;BME280;48110;47.532;19.078;2023-03-24T16:27:32;99494.56;;;20.24;38.09
62124;BME280;48110;47.532;19.078;2023-03-24T16:30:44;99494.41;;;20.09;38.40
62124;BME280;48110;47.532;19.078;2023-03-24T16:33:53;99498.28;;;19.96;38.57
62124;BME280;48110;47.532;19.078;2023-03-24T16:37:01;99497.97;;;19.92;38.67
62124;BME280;48110;47.532;19.078;2023-03-24T16:40:31;99484.91;;;19.79;38.96
62124;BME280;48110;47.532;19.078;2023-03-24T16:43:39;99480.94;;;19.65;39.28
62124;BME280;48110;47.532;19.078;2023-03-24T16:46:46;99482.03;;;19.47;39.72
62124;BME280;48110;47.532;19.078;2023-03-24T16:49:54;99482.28;;;19.46;39.81
62124;BME280;48110;47.532;19.078;2023-03-24T16:53:01;99480.72;;;19.33;40.13
62124;BME280;48110;47.532;19.078;2023-03-24T16:56:08;99475.16;;;19.23;40.43
62124;BME280;48110;47.532;19.078;2023-03-24T16:59:16;99478.53;;;19.14;40.61
62124;BME280;48110;47.532;19.078;2023-03-24T17:02:23;99482.84;;;18.98;41.33
62124;BME280;48110;47.532;19.078;2023-03-24T17:05:34;99478.03;;;19.00;41.06
62124;BME280;48110;47.532;19.078;2023-03-24T17:08:41;99476.50;;;18.87;41.40
62124;BME280;48110;47.532;19.078;2023-03-24T17:11:57;99482.03;;;18.81;41.62
62124;BME280;48110;47.532;19.078;2023-03-24T17:15:15;99480.84;;;18.60;42.18
62124;BME280;48110;47.532;19.078;2023-03-24T17:18:22;99462.91;;;18.49;42.75
62124;BME280;48110;47.532;19.078;2023-03-24T17:21:33;99468.53;;;18.36;42.98
62124;BME280;48110;47.532;19.078;2023-03-24T17:24:42;99465.00;;;18.47;42.65
62124;BME280;48110;47.532;19.078;2023-03-24T17:27:50;99464.16;;;18.30;43.20
62124;BME280;48110;47.532;19.078;2023-03-24T17:30:56;99471.19;;;18.19;43.51
62124;BME280;48110;47.532;19.078;2023-03-24T17:34:11;99466.91;;;18.06;43.89
62124;BME280;48110;47.532;19.078;2023-03-24T17:37:22;99470.78;;;17.99;44.13
62124;BME280;48110;47.532;19.078;2023-03-24T17:40:32;99476.88;;;17.83;44.98
62124;BME280;48110;47.532;19.078;2023-03-24T17:43:38;99470.25;;;17.73;45.61
62124;BME280;48110;47.532;19.078;2023-03-24T17:46:44;99469.47;;;17.61;45.67
62124;BME280;48110;47.532;19.078;2023-03-24T17:49:49;99467.37;;;17.52;46.15
62124;BME280;48110;47.532;19.078;2023-03-24T17:52:59;99465.94;;;17.49;47.13
62124;BME280;48110;47.532;19.078;2023-03-24T17:56:05;99464.22;;;17.31;47.25
62124;BME280;48110;47.532;19.078;2023-03-24T17:59:13;99461.19;;;17.16;47.79
62124;BME280;48110;47.532;19.078;2023-03-24T18:02:19;99464.78;;;16.99;48.35
62124;BME280;48110;47.532;19.078;2023-03-24T18:05:23;99457.19;;;16.84;48.96
62124;BME280;48110;47.532;19.078;2023-03-24T18:08:29;99461.91;;;16.70;49.78
62124;BME280;48110;47.532;19.078;2023-03-24T18:11:33;99465.16;;;16.61;50.20
62124;BME280;48110;47.532;19.078;2023-03-24T18:14:38;99465.56;;;16.46;51.17
62124;BME280;48110;47.532;19.078;2023-03-24T18:17:42;99475.78;;;16.37;51.35
62124;BME280;48110;47.532;19.078;2023-03-24T18:20:48;99478.56;;;16.31;52.62
62124;BME280;48110;47.532;19.078;2023-03-24T18:23:53;99471.66;;;16.23;52.72
62124;BME280;48110;47.532;19.078;2023-03-24T18:26:57;99482.87;;;16.14;52.04
62124;BME280;48110;47.532;19.078;2023-03-24T18:30:03;99479.94;;;16.03;52.38
62124;BME280;48110;47.532;19.078;2023-03-24T18:33:07;99473.84;;;15.96;52.63
62124;BME280;48110;47.532;19.078;2023-03-24T18:36:16;99475.34;;;15.92;53.99
62124;BME280;48110;47.532;19.078;2023-03-24T18:39:28;99474.59;;;15.85;53.93
62124;BME280;48110;47.532;19.078;2023-03-24T18:42:36;99474.09;;;15.77;54.05
62124;BME280;48110;47.532;19.078;2023-03-24T18:45:44;99483.13;;;15.76;55.09
62124;BME280;48110;47.532;19.078;2023-03-24T18:48:50;99475.72;;;15.78;54.36
62124;BME280;48110;47.532;19.078;2023-03-24T18:51:57;99473.56;;;15.86;55.53
62124;BME280;48110;47.532;19.078;2023-03-24T18:55:02;99489.38;;;15.88;55.71
62124;BME280;48110;47.532;19.078;2023-03-24T18:58:06;99479.34;;;16.01;54.07